createdAt,value
2018-09-04T00:00:49.813Z,100.0
2018-09-04T00:02:50.837Z,100.0
2018-09-04T00:04:50.277Z,100.0
2018-09-04T00:06:50.510Z,100.0
2018-09-04T00:08:50.626Z,100.0
2018-09-04T00:10:50.610Z,100.0
2018-09-04T00:14:50.580Z,100.0
2018-09-04T00:16:50.715Z,100.0
2018-09-04T00:18:50.820Z,100.0
2018-09-04T00:20:49.830Z,100.0
2018-09-04T00:22:49.934Z,100.0
2018-09-04T00:24:49.900Z,100.0
2018-09-04T00:26:50.101Z,100.0
2018-09-04T00:28:50.199Z,100.0
2018-09-04T00:30:50.157Z,100.0
2018-09-04T00:32:50.115Z,100.0
2018-09-04T00:34:50.455Z,100.0
2018-09-04T00:36:50.610Z,100.0
2018-09-04T00:38:50.614Z,100.0
2018-09-04T00:40:50.606Z,100.0
2018-09-04T00:42:50.578Z,100.0
2018-09-04T00:44:50.499Z,100.0
2018-09-04T00:46:50.668Z,100.0
2018-09-04T00:48:50.599Z,100.0
2018-09-04T00:50:50.619Z,100.0
2018-09-04T00:52:50.673Z,100.0
2018-09-04T00:54:50.642Z,100.0
2018-09-04T00:56:49.861Z,100.0
2018-09-04T00:58:49.989Z,100.0
2018-09-04T01:00:50.061Z,100.0
2018-09-04T01:02:50.167Z,100.0
2018-09-04T01:04:50.423Z,100.0
2018-09-04T01:06:50.518Z,100.0
2018-09-04T01:08:50.600Z,100.0
2018-09-04T01:10:50.653Z,100.0
2018-09-04T01:12:50.652Z,100.0
2018-09-04T01:14:50.721Z,100.0
2018-09-04T01:16:49.904Z,100.0
2018-09-04T01:18:49.941Z,100.0
2018-09-04T01:20:49.948Z,100.0
2018-09-04T01:22:49.954Z,100.0
2018-09-04T01:24:50.125Z,100.0
2018-09-04T01:26:50.314Z,100.0
2018-09-04T01:28:50.287Z,100.0
2018-09-04T01:30:50.252Z,100.0
2018-09-04T01:32:50.367Z,100.0
2018-09-04T01:34:50.614Z,100.0
2018-09-04T01:36:49.831Z,100.0
2018-09-04T01:38:49.823Z,100.0
2018-09-04T01:40:49.907Z,100.0
2018-09-04T01:42:49.885Z,100.0
2018-09-04T01:44:49.926Z,100.0
2018-09-04T01:46:50.168Z,100.0
2018-09-04T01:48:50.155Z,100.0
2018-09-04T01:50:50.307Z,100.0
2018-09-04T01:52:50.446Z,100.0
2018-09-04T01:54:50.634Z,100.0
2018-09-04T01:56:49.831Z,100.0
2018-09-04T01:58:49.977Z,100.0
2018-09-04T02:00:49.956Z,100.0
2018-09-04T02:02:50.024Z,100.0
2018-09-04T02:04:50.325Z,100.0
2018-09-04T02:06:50.575Z,100.0
2018-09-04T02:08:50.581Z,100.0
2018-09-04T02:10:50.553Z,100.0
2018-09-04T02:12:49.788Z,100.0
2018-09-04T02:14:49.898Z,100.0
2018-09-04T02:16:50.100Z,100.0
2018-09-04T02:18:50.105Z,100.0
2018-09-04T02:20:50.137Z,100.0
2018-09-04T02:22:50.094Z,100.0
2018-09-04T02:24:50.051Z,100.0
2018-09-04T02:26:50.222Z,100.0
2018-09-04T02:28:50.221Z,100.0
2018-09-04T02:30:50.464Z,100.0
2018-09-04T02:32:50.455Z,100.0
2018-09-04T02:34:49.861Z,100.0
2018-09-04T02:36:50.113Z,100.0
2018-09-04T02:38:50.189Z,100.0
2018-09-04T02:40:50.247Z,100.0
2018-09-04T02:42:50.267Z,100.0
2018-09-04T02:44:50.388Z,100.0
2018-09-04T02:46:50.459Z,100.0
2018-09-04T02:48:50.568Z,100.0
2018-09-04T02:50:49.793Z,100.0
2018-09-04T02:52:50.722Z,100.0
2018-09-04T02:54:50.767Z,100.0
2018-09-04T02:56:49.930Z,100.0
2018-09-04T02:58:50.075Z,100.0
2018-09-04T03:00:50.057Z,100.0
2018-09-04T03:02:50.069Z,100.0
2018-09-04T03:04:50.388Z,100.0
2018-09-04T03:06:50.498Z,100.0
2018-09-04T03:08:50.462Z,100.0
2018-09-04T03:10:50.471Z,100.0
2018-09-04T03:12:50.395Z,100.0
2018-09-04T03:14:50.352Z,100.0
2018-09-04T03:16:50.464Z,100.0
2018-09-04T03:18:50.510Z,100.0
2018-09-04T03:20:50.503Z,100.0
2018-09-04T03:22:50.615Z,100.0
2018-09-04T03:24:50.594Z,100.0
2018-09-04T03:26:50.749Z,100.0
2018-09-04T03:28:50.749Z,100.0
2018-09-04T03:30:50.728Z,100.0
2018-09-04T03:32:49.776Z,100.0
2018-09-04T03:34:50.294Z,100.0
2018-09-04T03:36:50.454Z,100.0
2018-09-04T03:38:50.475Z,100.0
2018-09-04T03:40:50.565Z,100.0
2018-09-04T03:42:50.577Z,100.0
2018-09-04T03:44:50.545Z,100.0
2018-09-04T03:46:50.740Z,100.0
2018-09-04T03:48:50.655Z,100.0
2018-09-04T03:50:50.730Z,100.0
2018-09-04T03:52:49.835Z,100.0
2018-09-04T03:54:49.818Z,100.0
2018-09-04T03:56:50.125Z,100.0
2018-09-04T03:58:50.103Z,100.0
2018-09-04T04:00:50.081Z,100.0
2018-09-04T04:02:50.306Z,100.0
2018-09-04T04:04:50.567Z,100.0
2018-09-04T04:06:49.970Z,100.0
2018-09-04T04:08:50.107Z,100.0
2018-09-04T04:10:50.137Z,100.0
2018-09-04T04:12:50.182Z,100.0
2018-09-04T04:14:50.163Z,100.0
2018-09-04T04:16:50.279Z,100.0
2018-09-04T04:18:50.350Z,100.0
2018-09-04T04:20:50.359Z,100.0
2018-09-04T04:22:50.322Z,100.0
2018-09-04T04:24:50.318Z,100.0
2018-09-04T04:26:50.010Z,100.0
2018-09-04T04:28:50.080Z,100.0
2018-09-04T04:30:50.089Z,100.0
2018-09-04T04:32:50.146Z,100.0
2018-09-04T04:34:50.473Z,100.0
2018-09-04T04:36:50.592Z,100.0
2018-09-04T04:38:50.597Z,100.0
2018-09-04T04:40:50.687Z,100.0
2018-09-04T04:42:50.752Z,100.0
2018-09-04T04:44:50.764Z,100.0
2018-09-04T04:46:49.976Z,100.0
2018-09-04T04:48:50.057Z,100.0
2018-09-04T04:50:50.059Z,100.0
2018-09-04T04:52:50.133Z,100.0
2018-09-04T04:54:50.098Z,100.0
2018-09-04T04:56:50.310Z,100.0
2018-09-04T04:58:50.303Z,100.0
2018-09-04T05:00:50.337Z,100.0
2018-09-04T05:02:50.265Z,100.0
2018-09-04T05:04:50.569Z,100.0
2018-09-04T05:06:49.874Z,100.0
2018-09-04T05:08:49.877Z,100.0
2018-09-04T05:10:49.917Z,100.0
2018-09-04T05:12:49.935Z,100.0
2018-09-04T05:14:49.931Z,100.0
2018-09-04T05:16:50.195Z,100.0
2018-09-04T05:18:50.288Z,100.0
2018-09-04T05:20:50.246Z,100.0
2018-09-04T05:22:50.661Z,100.0
2018-09-04T05:24:50.658Z,100.0
2018-09-04T05:26:49.809Z,100.0
2018-09-04T05:28:49.812Z,100.0
2018-09-04T05:30:50.742Z,100.0
2018-09-04T05:32:49.890Z,100.0
2018-09-04T05:34:50.218Z,100.0
2018-09-04T05:36:50.727Z,100.0
2018-09-04T05:38:49.845Z,100.0
2018-09-04T05:40:49.942Z,100.0
2018-09-04T05:42:49.927Z,100.0
2018-09-04T05:44:49.981Z,100.0
2018-09-04T05:46:50.291Z,100.0
2018-09-04T05:48:50.353Z,100.0
2018-09-04T05:50:50.414Z,100.0
2018-09-04T05:52:50.494Z,100.0
2018-09-04T05:54:50.645Z,100.0
2018-09-04T05:56:49.931Z,100.0
2018-09-04T05:58:49.962Z,100.0
2018-09-04T06:00:50.019Z,100.0
2018-09-04T06:02:50.021Z,100.0
2018-09-04T06:04:50.289Z,100.0
2018-09-04T06:06:50.604Z,100.0
2018-09-04T06:08:50.716Z,100.0
2018-09-04T06:10:50.746Z,100.0
2018-09-04T06:12:50.800Z,100.0
2018-09-04T06:14:49.793Z,100.0
2018-09-04T06:16:49.886Z,100.0
2018-09-04T06:18:49.929Z,100.0
2018-09-04T06:20:49.998Z,100.0
2018-09-04T06:22:49.992Z,100.0
2018-09-04T06:24:50.028Z,100.0
2018-09-04T06:26:50.137Z,100.0
2018-09-04T06:28:50.130Z,100.0
2018-09-04T06:30:50.113Z,100.0
2018-09-04T06:32:50.110Z,100.0
2018-09-04T06:34:50.517Z,100.0
2018-09-04T06:36:51.174Z,100.0
2018-09-04T06:38:50.268Z,100.0
2018-09-04T06:40:50.332Z,100.0
2018-09-04T06:42:50.276Z,100.0
2018-09-04T06:44:50.228Z,100.0
2018-09-04T06:46:50.323Z,100.0
2018-09-04T06:48:50.379Z,100.0
2018-09-04T06:50:50.348Z,100.0
2018-09-04T06:52:50.368Z,100.0
2018-09-04T06:54:50.459Z,100.0
2018-09-04T06:56:50.583Z,100.0
2018-09-04T06:58:50.605Z,100.0
2018-09-04T07:00:50.574Z,100.0
2018-09-04T07:02:50.600Z,100.0
2018-09-04T07:04:50.040Z,100.0
2018-09-04T07:06:50.211Z,100.0
2018-09-04T07:08:50.169Z,100.0
2018-09-04T07:10:50.206Z,100.0
2018-09-04T07:12:50.140Z,100.0
2018-09-04T07:14:50.162Z,100.0
2018-09-04T07:16:50.549Z,100.0
2018-09-04T07:18:50.521Z,100.0
2018-09-04T07:20:50.596Z,100.0
2018-09-04T07:22:50.591Z,100.0
2018-09-04T07:24:50.584Z,100.0
2018-09-04T07:26:49.914Z,100.0
2018-09-04T07:28:49.963Z,100.0
2018-09-04T07:30:49.981Z,100.0
2018-09-04T07:32:50.076Z,100.0
2018-09-04T07:34:50.525Z,100.0
2018-09-04T07:36:50.654Z,100.0
2018-09-04T07:38:50.790Z,100.0
2018-09-04T07:40:50.730Z,100.0
2018-09-04T07:42:49.829Z,100.0
2018-09-04T07:44:49.810Z,100.0
2018-09-04T07:46:49.968Z,100.0
2018-09-04T07:48:50.049Z,100.0
2018-09-04T07:50:49.971Z,100.0
2018-09-04T07:52:49.964Z,100.0
2018-09-04T07:54:50.002Z,100.0
2018-09-04T07:56:50.073Z,100.0
2018-09-04T07:58:50.045Z,100.0
2018-09-04T08:00:50.344Z,100.0
2018-09-04T08:02:50.276Z,100.0
2018-09-04T08:04:50.692Z,100.0
2018-09-04T08:06:49.809Z,100.0
2018-09-04T08:08:49.791Z,100.0
2018-09-04T08:10:49.871Z,100.0
2018-09-04T08:12:49.893Z,100.0
2018-09-04T08:14:49.982Z,99.7
2018-09-04T08:16:50.174Z,100.0
2018-09-04T08:18:50.154Z,98.8
2018-09-04T08:20:50.961Z,98.7
2018-09-04T08:22:50.026Z,97.4
2018-09-04T08:24:50.036Z,96.8
2018-09-04T08:26:50.124Z,98.7
2018-09-04T08:28:50.203Z,96.6
2018-09-04T08:30:50.214Z,96.2
2018-09-04T08:32:50.519Z,97.5
2018-09-04T08:34:49.965Z,96.2
2018-09-04T08:36:50.202Z,96.5
2018-09-04T08:38:50.339Z,97.2
2018-09-04T08:40:50.349Z,97.2
2018-09-04T08:42:50.351Z,97.3
2018-09-04T08:44:50.406Z,96.4
2018-09-04T08:46:50.525Z,95.7
2018-09-04T08:48:50.531Z,95.1
2018-09-04T08:50:50.603Z,95.0
2018-09-04T08:52:49.779Z,95.3
2018-09-04T08:54:49.799Z,95.1
2018-09-04T08:56:49.936Z,94.3
2018-09-04T08:58:50.088Z,94.8
2018-09-04T09:00:50.087Z,93.6
2018-09-04T09:02:50.096Z,95.0
2018-09-04T09:04:50.403Z,94.7
2018-09-04T09:06:50.551Z,92.8
2018-09-04T09:08:50.569Z,93.9
2018-09-04T09:10:50.566Z,93.7
2018-09-04T09:12:50.597Z,94.0
2018-09-04T09:14:50.570Z,92.3
2018-09-04T09:16:51.436Z,92.5
2018-09-04T09:18:50.488Z,93.0
2018-09-04T09:20:50.510Z,91.4
2018-09-04T09:22:50.951Z,92.2
2018-09-04T09:24:50.003Z,91.3
2018-09-04T09:26:50.341Z,90.9
2018-09-04T09:28:50.285Z,90.3
2018-09-04T09:30:50.378Z,90.1
2018-09-04T09:32:50.380Z,89.6
2018-09-04T09:34:50.689Z,90.3
2018-09-04T09:36:51.166Z,79
2018-09-04T09:38:50.350Z,87.0
2018-09-04T09:40:50.383Z,79
2018-09-04T09:42:50.365Z,78
2018-09-04T09:44:50.363Z,78
2018-09-04T09:46:49.841Z,78
2018-09-04T09:48:49.837Z,78
2018-09-04T09:50:50.774Z,78
2018-09-04T09:52:50.333Z,78
2018-09-04T09:54:49.863Z,78
2018-09-04T09:56:50.142Z,78
2018-09-04T09:58:50.138Z,78
2018-09-04T10:00:50.068Z,77
2018-09-04T10:02:50.101Z,76
2018-09-04T10:04:50.494Z,76
2018-09-04T10:06:50.766Z,76
2018-09-04T10:08:49.882Z,76
2018-09-04T10:10:49.959Z,75
2018-09-04T10:12:49.963Z,76
2018-09-04T10:14:49.994Z,75
2018-09-04T10:16:50.090Z,75
2018-09-04T10:18:50.007Z,72
2018-09-04T10:20:49.999Z,75.6
2018-09-04T10:22:50.015Z,74.4
2018-09-04T10:24:49.977Z,74.4
2018-09-04T10:26:50.076Z,73
2018-09-04T10:28:50.032Z,73
2018-09-04T10:30:50.039Z,72
2018-09-04T10:32:50.129Z,71
2018-09-04T10:34:50.337Z,71
2018-09-04T10:36:50.565Z,71
2018-09-04T10:38:50.615Z,71
2018-09-04T10:40:50.504Z,70
2018-09-04T10:42:50.467Z,70
2018-09-04T10:44:50.420Z,71
2018-09-04T10:46:50.601Z,70
2018-09-04T10:48:50.673Z,70.8
2018-09-04T10:50:50.644Z,72.4
2018-09-04T10:52:50.678Z,70.7
2018-09-04T10:54:50.720Z,70.4
2018-09-04T10:56:49.941Z,69
2018-09-04T10:58:50.003Z,69
2018-09-04T11:00:49.934Z,69
2018-09-04T11:02:49.968Z,69
2018-09-04T11:04:50.389Z,69
2018-09-04T11:06:50.526Z,69
2018-09-04T11:08:50.496Z,70
2018-09-04T11:10:50.499Z,69
2018-09-04T11:12:50.514Z,68
2018-09-04T11:14:50.536Z,68
2018-09-04T11:16:50.668Z,68
2018-09-04T11:18:50.615Z,69
2018-09-04T11:20:50.659Z,69
2018-09-04T11:22:50.591Z,69
2018-09-04T11:24:50.619Z,69
2018-09-04T11:26:50.783Z,67
2018-09-04T11:28:50.765Z,67
2018-09-04T11:30:50.124Z,68
2018-09-04T11:32:50.395Z,68
2018-09-04T11:34:49.889Z,68
2018-09-04T11:36:50.107Z,68
2018-09-04T11:38:50.088Z,67
2018-09-04T11:40:50.059Z,67
2018-09-04T11:42:50.151Z,67
2018-09-04T11:44:50.178Z,67
2018-09-04T11:46:50.583Z,67
2018-09-04T11:48:50.505Z,67
2018-09-04T11:50:50.501Z,66
2018-09-04T11:52:50.493Z,66
2018-09-04T11:54:50.603Z,66
2018-09-04T11:56:49.942Z,67
2018-09-04T11:58:50.031Z,65
2018-09-04T12:00:50.166Z,65
2018-09-04T12:02:50.195Z,66
2018-09-04T12:04:50.502Z,66
2018-09-04T12:06:50.649Z,65
2018-09-04T12:08:50.719Z,65
2018-09-04T12:10:50.783Z,65
2018-09-04T12:12:50.652Z,65
2018-09-04T12:14:50.748Z,65
2018-09-04T12:16:49.958Z,64
2018-09-04T12:18:50.110Z,65
2018-09-04T12:20:50.791Z,65
2018-09-04T12:22:49.947Z,65
2018-09-04T12:24:50.382Z,65
2018-09-04T12:26:50.607Z,64
2018-09-04T12:28:50.570Z,64
2018-09-04T12:30:50.661Z,64
2018-09-04T12:32:50.714Z,64
2018-09-04T12:36:49.823Z,62
2018-09-04T12:38:49.812Z,62
2018-09-04T12:40:49.831Z,62
2018-09-04T12:42:50.744Z,61
2018-09-04T12:44:50.952Z,59
2018-09-04T12:46:50.374Z,61
2018-09-04T12:48:50.467Z,61
2018-09-04T12:50:50.421Z,60
2018-09-04T12:52:50.337Z,61
2018-09-04T12:54:50.727Z,60
2018-09-04T12:56:49.892Z,60
2018-09-04T12:58:49.912Z,60
2018-09-04T13:00:49.966Z,59
2018-09-04T13:02:49.955Z,59
2018-09-04T13:04:50.347Z,59
2018-09-04T13:06:50.550Z,59
2018-09-04T13:08:50.605Z,59
2018-09-04T13:10:50.581Z,59
2018-09-04T13:12:50.555Z,59
2018-09-04T13:14:50.571Z,58
2018-09-04T13:16:50.703Z,58
2018-09-04T13:18:50.726Z,59
2018-09-04T13:20:49.813Z,59
2018-09-04T13:22:50.155Z,59
2018-09-04T13:24:50.125Z,56
2018-09-04T13:26:50.400Z,55
2018-09-04T13:28:50.497Z,55
2018-09-04T13:30:50.430Z,57
2018-09-04T13:32:50.472Z,57
2018-09-04T13:34:49.787Z,57
2018-09-04T13:36:49.987Z,57
2018-09-04T13:38:50.064Z,56
2018-09-04T13:40:49.993Z,56
2018-09-04T13:42:49.860Z,56
2018-09-04T13:44:49.805Z,57
2018-09-04T13:46:50.085Z,58
2018-09-04T13:48:49.991Z,56
2018-09-04T13:50:50.011Z,56
2018-09-04T13:52:50.019Z,56
2018-09-04T13:54:50.135Z,56
2018-09-04T13:56:50.448Z,56
2018-09-04T13:58:50.408Z,55
2018-09-04T14:00:50.383Z,55
2018-09-04T14:02:50.408Z,55
2018-09-04T14:04:50.727Z,55
2018-09-04T14:06:50.001Z,54
2018-09-04T14:08:50.043Z,54
2018-09-04T14:10:50.028Z,54
2018-09-04T14:12:50.075Z,55
2018-09-04T14:14:50.044Z,55
2018-09-04T14:16:50.518Z,55
2018-09-04T14:18:50.484Z,55
2018-09-04T14:20:50.714Z,54
2018-09-04T14:22:50.716Z,55
2018-09-04T14:24:50.704Z,55
2018-09-04T14:26:49.956Z,54
2018-09-04T14:29:07.666Z,54
2018-09-04T14:30:51.144Z,54
2018-09-04T14:32:50.271Z,54
2018-09-04T14:34:50.593Z,55
2018-09-04T14:36:52.349Z,54
2018-09-04T14:38:50.316Z,54
2018-09-04T14:40:50.251Z,53
2018-09-04T14:42:50.525Z,53
2018-09-04T14:44:50.732Z,53
2018-09-04T14:46:49.984Z,54
2018-09-04T14:48:50.075Z,54
2018-09-04T14:50:50.234Z,54
2018-09-04T14:52:50.244Z,54
2018-09-04T14:54:50.280Z,54
2018-09-04T14:56:50.750Z,53
2018-09-04T14:58:50.744Z,54
2018-09-04T15:00:50.796Z,54
2018-09-04T15:02:50.758Z,54
2018-09-04T15:04:50.183Z,53
2018-09-04T15:06:50.454Z,52
2018-09-04T15:08:50.433Z,52
2018-09-04T15:10:50.454Z,52
2018-09-04T15:12:50.388Z,53
2018-09-04T15:14:50.370Z,53
2018-09-04T15:16:50.469Z,53
2018-09-04T15:18:50.762Z,54
2018-09-04T15:20:49.888Z,54
2018-09-04T15:22:49.928Z,54
2018-09-04T15:24:50.037Z,54
2018-09-04T15:26:50.153Z,52
2018-09-04T15:28:50.095Z,52
2018-09-04T15:30:50.053Z,53
2018-09-04T15:32:50.062Z,53
2018-09-04T15:34:50.377Z,53
2018-09-04T15:36:50.755Z,53
2018-09-04T15:38:50.773Z,53
2018-09-04T15:40:49.816Z,53
2018-09-04T15:42:50.294Z,53
2018-09-04T15:44:50.348Z,53
2018-09-04T15:46:50.633Z,53
2018-09-04T15:48:50.662Z,53
2018-09-04T15:50:50.768Z,53
2018-09-04T15:52:50.733Z,54
2018-09-04T15:54:49.972Z,54
2018-09-04T15:56:50.806Z,54
2018-09-04T15:58:49.922Z,54
2018-09-04T16:00:50.117Z,55
2018-09-04T16:02:50.111Z,55
2018-09-04T16:04:50.377Z,55
2018-09-04T16:06:50.555Z,55
2018-09-04T16:08:50.595Z,52.9
2018-09-04T16:10:50.563Z,56
2018-09-04T16:12:50.602Z,54.9
2018-09-04T16:14:50.586Z,56
2018-09-04T16:16:49.800Z,54.7
2018-09-04T16:18:49.805Z,55.4
2018-09-04T16:20:49.809Z,55.6
2018-09-04T16:22:49.947Z,55.8
2018-09-04T16:24:49.947Z,56.2
2018-09-04T16:26:50.128Z,56.3
2018-09-04T16:28:50.059Z,56.5
2018-09-04T16:30:50.016Z,56.4
2018-09-04T16:32:49.994Z,56.6
2018-09-04T16:34:51.293Z,58.2
2018-09-04T16:36:50.523Z,59.1
2018-09-04T16:38:50.486Z,58.1
2018-09-04T16:40:50.465Z,58.9
2018-09-04T16:42:50.433Z,58.9
2018-09-04T16:44:50.364Z,60.2
2018-09-04T16:46:50.556Z,59.9
2018-09-04T16:48:50.715Z,60.1
2018-09-04T16:50:50.687Z,60.6
2018-09-04T16:52:50.671Z,60.4
2018-09-04T16:54:50.672Z,61.6
2018-09-04T16:56:50.071Z,64.0
2018-09-04T16:58:50.389Z,65.1
2018-09-04T17:00:50.380Z,65.1
2018-09-04T17:02:50.328Z,65.6
2018-09-04T17:04:50.746Z,67.3
2018-09-04T17:06:49.936Z,67.2
2018-09-04T17:08:50.009Z,69.1
2018-09-04T17:10:50.006Z,68.6
2018-09-04T17:12:50.374Z,69.0
2018-09-04T17:14:50.286Z,69.0
2018-09-04T17:16:50.535Z,70.9
2018-09-04T17:18:50.505Z,70.4
2018-09-04T17:20:50.474Z,70.4
2018-09-04T17:22:50.504Z,71.3
2018-09-04T17:24:50.455Z,72.1
2018-09-04T17:26:50.717Z,72.6
2018-09-04T17:28:50.683Z,73.2
2018-09-04T17:30:50.673Z,74.7
2018-09-04T17:32:50.575Z,75.0
2018-09-04T17:34:49.851Z,74.4
2018-09-04T17:36:49.996Z,74.0
2018-09-04T17:38:50.040Z,75.1
2018-09-04T17:40:50.081Z,75.9
2018-09-04T17:42:50.192Z,75.9
2018-09-04T17:44:50.287Z,73.5
2018-09-04T17:46:50.428Z,73.3
2018-09-04T17:48:50.463Z,73.2
2018-09-04T17:50:50.410Z,73.9
2018-09-04T17:52:50.443Z,72.9
2018-09-04T17:54:50.764Z,72.8
2018-09-04T17:56:49.960Z,73.1
2018-09-04T17:58:49.960Z,73.1
2018-09-04T18:00:50.260Z,74.7
2018-09-04T18:02:50.219Z,76.2
2018-09-04T18:04:50.403Z,78.5
2018-09-04T18:06:50.581Z,78.5
2018-09-04T18:08:50.580Z,78.5
2018-09-04T18:10:50.532Z,76.1
2018-09-04T18:12:50.578Z,75.9
2018-09-04T18:14:50.604Z,75.4
2018-09-04T18:16:49.875Z,75.5
2018-09-04T18:18:49.834Z,75.0
2018-09-04T18:20:49.817Z,75.2
2018-09-04T18:22:49.959Z,76.2
2018-09-04T18:24:49.946Z,76.3
2018-09-04T18:26:50.163Z,76.0
2018-09-04T18:28:50.330Z,77.0
2018-09-04T18:30:50.420Z,76.9
2018-09-04T18:32:50.458Z,76.5
2018-09-04T18:34:49.870Z,76.5
2018-09-04T18:36:50.114Z,76.6
2018-09-04T18:38:50.133Z,76.9
2018-09-04T18:40:50.076Z,77.0
2018-09-04T18:42:50.033Z,78.2
2018-09-04T18:44:50.011Z,77.9
2018-09-04T18:46:50.192Z,77.4
2018-09-04T18:48:50.828Z,77.4
2018-09-04T18:50:49.926Z,78.1
2018-09-04T18:52:50.247Z,78.4
2018-09-04T18:54:50.302Z,78.8
2018-09-04T18:56:50.453Z,78.6
2018-09-04T18:58:50.457Z,79.1
2018-09-04T19:00:50.470Z,79.0
2018-09-04T19:02:50.650Z,79.2
2018-09-04T19:04:50.025Z,79.2
2018-09-04T19:06:50.603Z,79.1
2018-09-04T19:08:50.673Z,79.7
2018-09-04T19:10:50.641Z,79.9
2018-09-04T19:12:50.638Z,80.0
2018-09-04T19:14:50.649Z,80.5
2018-09-04T19:16:49.879Z,82.2
2018-09-04T19:18:49.962Z,79.8
2018-09-04T19:20:49.936Z,79.4
2018-09-04T19:22:50.010Z,79.2
2018-09-04T19:24:49.986Z,78.8
2018-09-04T19:26:50.259Z,78.4
2018-09-04T19:28:50.196Z,78.4
2018-09-04T19:30:50.152Z,78.4
2018-09-04T19:32:50.180Z,78.9
2018-09-04T19:34:50.474Z,79.7
2018-09-04T19:36:50.621Z,80.2
2018-09-04T19:38:50.765Z,79.3
2018-09-04T19:40:49.802Z,80.4
2018-09-04T19:42:49.998Z,80.6
2018-09-04T19:44:50.020Z,81.6
2018-09-04T19:46:50.215Z,81.2
2018-09-04T19:48:50.148Z,82.0
2018-09-04T19:50:50.136Z,81.0
2018-09-04T19:52:50.116Z,80.3
2018-09-04T19:54:50.140Z,80.2
2018-09-04T19:56:50.265Z,80.6
2018-09-04T19:58:50.257Z,82.9
2018-09-04T20:00:50.749Z,82.9
2018-09-04T20:02:49.940Z,81.9
2018-09-04T20:04:50.255Z,81.9
2018-09-04T20:06:50.395Z,83.7
2018-09-04T20:08:50.506Z,84.2
2018-09-04T20:10:50.566Z,83.6
2018-09-04T20:12:50.605Z,83.2
2018-09-04T20:14:50.609Z,82.9
2018-09-04T20:16:49.820Z,82.8
2018-09-04T20:18:49.883Z,82.6
2018-09-04T20:20:49.856Z,82.6
2018-09-04T20:22:49.936Z,83.0
2018-09-04T20:24:50.006Z,83.7
2018-09-04T20:26:50.213Z,85.2
2018-09-04T20:28:50.263Z,85.2
2018-09-04T20:30:50.239Z,85.1
2018-09-04T20:32:50.270Z,85.3
2018-09-04T20:34:50.724Z,85.5
2018-09-04T20:36:49.985Z,87.4
2018-09-04T20:38:50.024Z,87.4
2018-09-04T20:40:50.052Z,87.4
2018-09-04T20:42:50.131Z,87.8
2018-09-04T20:44:50.184Z,87.0
2018-09-04T20:46:50.433Z,87.8
2018-09-04T20:48:50.519Z,88.8
2018-09-04T20:50:50.490Z,91.0
2018-09-04T20:52:50.625Z,90.9
2018-09-04T20:54:50.631Z,91.8
2018-09-04T20:56:49.827Z,92.3
2018-09-04T20:58:49.889Z,92.7
2018-09-04T21:00:49.879Z,92.3
2018-09-04T21:02:49.837Z,92.4
2018-09-04T21:04:50.120Z,93.4
2018-09-04T21:06:50.295Z,92.9
2018-09-04T21:08:50.388Z,94.0
2018-09-04T21:10:50.379Z,94.0
2018-09-04T21:12:50.437Z,93.4
2018-09-04T21:14:50.391Z,93.4
2018-09-04T21:16:50.612Z,93.6
2018-09-04T21:18:50.664Z,93.4
2018-09-04T21:20:50.705Z,94.8
2018-09-04T21:22:49.788Z,95.2
2018-09-04T21:24:49.775Z,95.2
2018-09-04T21:26:49.947Z,94.8
2018-09-04T21:28:50.008Z,95.7
2018-09-04T21:30:50.005Z,95.9
2018-09-04T21:32:50.005Z,96.2
2018-09-04T21:34:50.274Z,95.9
2018-09-04T21:36:50.727Z,96.3
2018-09-04T21:38:49.802Z,96.6
2018-09-04T21:40:49.885Z,97.2
2018-09-04T21:42:50.113Z,97.6
2018-09-04T21:44:50.115Z,97.5
2018-09-04T21:46:50.480Z,97.9
2018-09-04T21:48:50.450Z,98.1
2018-09-04T21:50:50.412Z,98.1
2018-09-04T21:52:50.539Z,99.0
2018-09-04T21:54:50.438Z,99.1
2018-09-04T21:56:49.796Z,99.0
2018-09-04T21:58:49.915Z,99.3
2018-09-04T22:00:49.969Z,99.3
2018-09-04T22:02:49.977Z,99.8
2018-09-04T22:04:50.523Z,99.6
2018-09-04T22:06:50.764Z,100.0
2018-09-04T22:08:50.783Z,100.0
2018-09-04T22:10:49.813Z,100.0
2018-09-04T22:12:49.799Z,100.0
2018-09-04T22:14:49.863Z,100.0
2018-09-04T22:16:50.042Z,100.0
2018-09-04T22:18:50.090Z,100.0
2018-09-04T22:20:50.065Z,100.0
2018-09-04T22:22:50.116Z,100.0
2018-09-04T22:24:50.109Z,100.0
2018-09-04T22:26:50.284Z,100.0
2018-09-04T22:28:50.327Z,100.0
2018-09-04T22:30:50.274Z,100.0
2018-09-04T22:32:50.391Z,100.0
2018-09-04T22:34:50.726Z,100.0
2018-09-04T22:36:49.901Z,100.0
2018-09-04T22:38:49.958Z,100.0
2018-09-04T22:40:49.941Z,100.0
2018-09-04T22:42:50.053Z,100.0
2018-09-04T22:44:50.054Z,100.0
2018-09-04T22:46:50.799Z,100.0
2018-09-04T22:48:49.776Z,100.0
2018-09-04T22:50:49.856Z,100.0
2018-09-04T22:52:49.853Z,100.0
2018-09-04T22:54:49.918Z,100.0
2018-09-04T22:56:50.110Z,100.0
2018-09-04T22:58:50.172Z,100.0
2018-09-04T23:00:50.283Z,100.0
2018-09-04T23:02:50.354Z,100.0
2018-09-04T23:04:50.654Z,100.0
2018-09-04T23:06:50.739Z,100.0
2018-09-04T23:08:50.781Z,100.0
2018-09-04T23:10:49.802Z,100.0
2018-09-04T23:12:50.015Z,100.0
2018-09-04T23:14:50.054Z,100.0
2018-09-04T23:16:50.218Z,100.0
2018-09-04T23:18:50.260Z,100.0
2018-09-04T23:20:50.258Z,100.0
2018-09-04T23:22:50.232Z,100.0
2018-09-04T23:24:50.264Z,100.0
2018-09-04T23:26:50.585Z,100.0
2018-09-04T23:28:50.548Z,100.0
2018-09-04T23:30:50.619Z,100.0
2018-09-04T23:32:50.671Z,100.0
2018-09-04T23:34:50.097Z,100.0
2018-09-04T23:36:50.316Z,100.0
2018-09-04T23:38:50.287Z,100.0
2018-09-04T23:40:50.246Z,100.0
2018-09-04T23:42:50.278Z,100.0
2018-09-04T23:44:50.256Z,100.0
2018-09-04T23:46:50.640Z,100.0
2018-09-04T23:48:50.621Z,100.0
2018-09-04T23:50:50.734Z,100.0
2018-09-04T23:52:49.825Z,100.0
2018-09-04T23:54:49.909Z,100.0
2018-09-04T23:56:50.188Z,100.0
2018-09-04T23:58:50.210Z,100.0
